sensor_id;sensor_type;location;lat;lon;timestamp;temperature;humidity
63445;DHT22;49573;47.682;9.170;2023-11-21T00:00:07;8.40;79.10
63445;DHT22;49573;47.682;9.170;2023-11-21T00:02:57;8.40;79.20
63445;DHT22;49573;47.682;9.170;2023-11-21T00:05:43;8.40;79.70
63445;DHT22;49573;47.682;9.170;2023-11-21T00:08:29;8.40;79.60
63445;DHT22;49573;47.682;9.170;2023-11-21T00:11:17;8.40;79.80
63445;DHT22;49573;47.682;9.170;2023-11-21T00:14:03;8.40;80.00
63445;DHT22;49573;47.682;9.170;2023-11-21T00:16:49;8.30;80.30
63445;DHT22;49573;47.682;9.170;2023-11-21T00:19:35;8.40;79.40
63445;DHT22;49573;47.682;9.170;2023-11-21T00:22:21;8.50;79.20
63445;DHT22;49573;47.682;9.170;2023-11-21T00:25:08;8.40;78.80
63445;DHT22;49573;47.682;9.170;2023-11-21T00:27:56;8.50;78.80
63445;DHT22;49573;47.682;9.170;2023-11-21T00:30:42;8.50;78.80
63445;DHT22;49573;47.682;9.170;2023-11-21T00:33:28;8.50;78.90
63445;DHT22;49573;47.682;9.170;2023-11-21T00:36:14;8.50;79.00
63445;DHT22;49573;47.682;9.170;2023-11-21T00:39:00;8.50;78.60
63445;DHT22;49573;47.682;9.170;2023-11-21T00:41:46;8.50;79.10
63445;DHT22;49573;47.682;9.170;2023-11-21T00:44:34;8.50;79.10
63445;DHT22;49573;47.682;9.170;2023-11-21T00:47:23;8.40;79.40
63445;DHT22;49573;47.682;9.170;2023-11-21T00:50:09;8.40;79.60
63445;DHT22;49573;47.682;9.170;2023-11-21T00:52:55;8.40;79.60
63445;DHT22;49573;47.682;9.170;2023-11-21T00:55:41;8.40;79.20
63445;DHT22;49573;47.682;9.170;2023-11-21T00:58:27;8.50;79.40
63445;DHT22;49573;47.682;9.170;2023-11-21T01:01:15;8.50;79.30
63445;DHT22;49573;47.682;9.170;2023-11-21T01:04:01;8.50;78.70
63445;DHT22;49573;47.682;9.170;2023-11-21T01:06:47;8.50;79.00
63445;DHT22;49573;47.682;9.170;2023-11-21T01:09:33;8.50;79.00
63445;DHT22;49573;47.682;9.170;2023-11-21T01:12:19;8.50;79.50
63445;DHT22;49573;47.682;9.170;2023-11-21T01:15:06;8.50;79.80
63445;DHT22;49573;47.682;9.170;2023-11-21T01:17:54;8.50;80.70
63445;DHT22;49573;47.682;9.170;2023-11-21T01:20:40;8.50;80.90
63445;DHT22;49573;47.682;9.170;2023-11-21T01:23:26;8.50;81.20
63445;DHT22;49573;47.682;9.170;2023-11-21T01:26:12;8.50;81.60
63445;DHT22;49573;47.682;9.170;2023-11-21T01:28:58;8.50;81.90
63445;DHT22;49573;47.682;9.170;2023-11-21T01:31:45;8.40;81.80
63445;DHT22;49573;47.682;9.170;2023-11-21T01:34:32;8.50;80.60
63445;DHT22;49573;47.682;9.170;2023-11-21T01:37:18;8.40;80.60
63445;DHT22;49573;47.682;9.170;2023-11-21T01:40:05;8.40;80.20
63445;DHT22;49573;47.682;9.170;2023-11-21T01:42:55;8.40;80.20
63445;DHT22;49573;47.682;9.170;2023-11-21T01:45:41;8.40;79.80
63445;DHT22;49573;47.682;9.170;2023-11-21T01:48:28;8.40;79.50
63445;DHT22;49573;47.682;9.170;2023-11-21T01:51:16;8.40;79.30
63445;DHT22;49573;47.682;9.170;2023-11-21T01:54:04;8.40;80.00
63445;DHT22;49573;47.682;9.170;2023-11-21T01:56:51;8.40;79.80
63445;DHT22;49573;47.682;9.170;2023-11-21T01:59:37;8.40;80.20
63445;DHT22;49573;47.682;9.170;2023-11-21T02:02:24;8.40;80.50
63445;DHT22;49573;47.682;9.170;2023-11-21T02:05:10;8.40;80.50
63445;DHT22;49573;47.682;9.170;2023-11-21T02:07:57;8.30;80.70
63445;DHT22;49573;47.682;9.170;2023-11-21T02:10:44;8.30;81.00
63445;DHT22;49573;47.682;9.170;2023-11-21T02:13:30;8.30;81.10
63445;DHT22;49573;47.682;9.170;2023-11-21T02:16:16;8.30;80.90
63445;DHT22;49573;47.682;9.170;2023-11-21T02:19:02;8.30;81.20
63445;DHT22;49573;47.682;9.170;2023-11-21T02:21:53;8.30;80.50
63445;DHT22;49573;47.682;9.170;2023-11-21T02:24:41;8.30;80.90
63445;DHT22;49573;47.682;9.170;2023-11-21T02:27:28;8.30;80.70
63445;DHT22;49573;47.682;9.170;2023-11-21T02:30:17;8.30;80.30
63445;DHT22;49573;47.682;9.170;2023-11-21T02:33:04;8.30;80.50
63445;DHT22;49573;47.682;9.170;2023-11-21T02:35:51;8.30;80.50
63445;DHT22;49573;47.682;9.170;2023-11-21T02:38:40;8.30;80.50
63445;DHT22;49573;47.682;9.170;2023-11-21T02:41:29;8.30;80.30
63445;DHT22;49573;47.682;9.170;2023-11-21T02:44:15;8.30;80.50
63445;DHT22;49573;47.682;9.170;2023-11-21T02:47:01;8.30;80.50
63445;DHT22;49573;47.682;9.170;2023-11-21T02:49:47;8.20;79.40
63445;DHT22;49573;47.682;9.170;2023-11-21T02:52:33;8.20;79.90
63445;DHT22;49573;47.682;9.170;2023-11-21T02:55:19;8.20;80.50
63445;DHT22;49573;47.682;9.170;2023-11-21T02:58:07;8.20;81.50
63445;DHT22;49573;47.682;9.170;2023-11-21T03:00:53;8.10;82.00
63445;DHT22;49573;47.682;9.170;2023-11-21T03:03:39;8.10;82.50
63445;DHT22;49573;47.682;9.170;2023-11-21T03:06:26;8.00;83.10
63445;DHT22;49573;47.682;9.170;2023-11-21T03:09:12;8.00;83.70
63445;DHT22;49573;47.682;9.170;2023-11-21T03:11:58;7.90;84.50
63445;DHT22;49573;47.682;9.170;2023-11-21T03:14:45;8.00;84.70
63445;DHT22;49573;47.682;9.170;2023-11-21T03:17:31;7.90;84.80
63445;DHT22;49573;47.682;9.170;2023-11-21T03:20:19;7.80;85.00
63445;DHT22;49573;47.682;9.170;2023-11-21T03:23:06;7.80;85.10
63445;DHT22;49573;47.682;9.170;2023-11-21T03:25:52;7.80;85.40
63445;DHT22;49573;47.682;9.170;2023-11-21T03:28:38;7.80;85.20
63445;DHT22;49573;47.682;9.170;2023-11-21T03:31:25;7.80;85.00
63445;DHT22;49573;47.682;9.170;2023-11-21T03:34:15;7.80;85.10
63445;DHT22;49573;47.682;9.170;2023-11-21T03:37:02;7.80;84.80
63445;DHT22;49573;47.682;9.170;2023-11-21T03:39:48;7.80;84.60
63445;DHT22;49573;47.682;9.170;2023-11-21T03:42:34;7.70;83.20
63445;DHT22;49573;47.682;9.170;2023-11-21T03:45:20;7.70;83.60
63445;DHT22;49573;47.682;9.170;2023-11-21T03:48:08;7.70;83.00
63445;DHT22;49573;47.682;9.170;2023-11-21T03:50:54;7.70;83.50
63445;DHT22;49573;47.682;9.170;2023-11-21T03:53:40;7.60;83.10
63445;DHT22;49573;47.682;9.170;2023-11-21T03:56:26;7.60;83.50
63445;DHT22;49573;47.682;9.170;2023-11-21T03:59:12;7.60;83.00
63445;DHT22;49573;47.682;9.170;2023-11-21T04:01:58;7.50;83.90
63445;DHT22;49573;47.682;9.170;2023-11-21T04:04:46;7.50;83.90
63445;DHT22;49573;47.682;9.170;2023-11-21T04:07:33;7.60;83.70
63445;DHT22;49573;47.682;9.170;2023-11-21T04:10:19;7.50;83.90
63445;DHT22;49573;47.682;9.170;2023-11-21T04:13:05;7.50;83.70
63445;DHT22;49573;47.682;9.170;2023-11-21T04:15:52;7.50;83.30
63445;DHT22;49573;47.682;9.170;2023-11-21T04:18:38;7.50;83.70
63445;DHT22;49573;47.682;9.170;2023-11-21T04:21:26;7.50;83.30
63445;DHT22;49573;47.682;9.170;2023-11-21T04:24:12;7.50;83.40
63445;DHT22;49573;47.682;9.170;2023-11-21T04:26:58;7.50;83.60
63445;DHT22;49573;47.682;9.170;2023-11-21T04:29:44;7.50;83.40
63445;DHT22;49573;47.682;9.170;2023-11-21T04:32:30;7.50;83.80
63445;DHT22;49573;47.682;9.170;2023-11-21T04:35:16;7.60;83.80
63445;DHT22;49573;47.682;9.170;2023-11-21T04:38:04;7.50;83.30
63445;DHT22;49573;47.682;9.170;2023-11-21T04:40:50;7.50;83.70
63445;DHT22;49573;47.682;9.170;2023-11-21T04:43:36;7.60;83.60
63445;DHT22;49573;47.682;9.170;2023-11-21T04:46:22;7.60;83.80
63445;DHT22;49573;47.682;9.170;2023-11-21T04:49:08;7.50;83.70
63445;DHT22;49573;47.682;9.170;2023-11-21T04:51:55;7.50;83.40
63445;DHT22;49573;47.682;9.170;2023-11-21T04:54:42;7.50;83.90
63445;DHT22;49573;47.682;9.170;2023-11-21T04:57:28;7.60;83.70
63445;DHT22;49573;47.682;9.170;2023-11-21T05:00:15;7.60;83.80
63445;DHT22;49573;47.682;9.170;2023-11-21T05:03:01;7.60;83.80
63445;DHT22;49573;47.682;9.170;2023-11-21T05:05:47;7.60;83.60
63445;DHT22;49573;47.682;9.170;2023-11-21T05:08:33;7.70;83.30
63445;DHT22;49573;47.682;9.170;2023-11-21T05:11:25;7.60;83.10
63445;DHT22;49573;47.682;9.170;2023-11-21T05:14:11;7.60;83.20
63445;DHT22;49573;47.682;9.170;2023-11-21T05:16:57;7.60;82.80
63445;DHT22;49573;47.682;9.170;2023-11-21T05:19:45;7.60;82.80
63445;DHT22;49573;47.682;9.170;2023-11-21T05:22:32;7.60;83.00
63445;DHT22;49573;47.682;9.170;2023-11-21T05:25:18;7.50;83.30
63445;DHT22;49573;47.682;9.170;2023-11-21T05:28:05;7.60;83.20
63445;DHT22;49573;47.682;9.170;2023-11-21T05:30:52;7.70;83.30
63445;DHT22;49573;47.682;9.170;2023-11-21T05:33:39;7.60;83.60
63445;DHT22;49573;47.682;9.170;2023-11-21T05:36:25;7.70;83.50
63445;DHT22;49573;47.682;9.170;2023-11-21T05:39:11;7.70;83.50
63445;DHT22;49573;47.682;9.170;2023-11-21T05:41:57;7.70;83.70
63445;DHT22;49573;47.682;9.170;2023-11-21T05:44:47;7.70;83.70
63445;DHT22;49573;47.682;9.170;2023-11-21T05:47:33;7.70;84.00
63445;DHT22;49573;47.682;9.170;2023-11-21T05:50:19;7.70;84.00
63445;DHT22;49573;47.682;9.170;2023-11-21T05:53:05;7.70;83.50
63445;DHT22;49573;47.682;9.170;2023-11-21T05:55:51;7.70;83.70
63445;DHT22;49573;47.682;9.170;2023-11-21T05:58:37;7.70;83.50
63445;DHT22;49573;47.682;9.170;2023-11-21T06:01:24;7.70;83.80
63445;DHT22;49573;47.682;9.170;2023-11-21T06:04:10;7.70;83.90
63445;DHT22;49573;47.682;9.170;2023-11-21T06:06:56;7.70;83.80
63445;DHT22;49573;47.682;9.170;2023-11-21T06:09:42;7.70;83.90
63445;DHT22;49573;47.682;9.170;2023-11-21T06:12:30;7.70;84.00
63445;DHT22;49573;47.682;9.170;2023-11-21T06:15:16;7.70;84.10
63445;DHT22;49573;47.682;9.170;2023-11-21T06:18:06;7.70;84.00
63445;DHT22;49573;47.682;9.170;2023-11-21T06:20:55;7.70;84.00
63445;DHT22;49573;47.682;9.170;2023-11-21T06:23:42;7.70;84.00
63445;DHT22;49573;47.682;9.170;2023-11-21T06:26:28;7.70;84.00
63445;DHT22;49573;47.682;9.170;2023-11-21T06:29:14;7.80;83.70
63445;DHT22;49573;47.682;9.170;2023-11-21T06:32:01;7.70;84.10
63445;DHT22;49573;47.682;9.170;2023-11-21T06:34:50;7.70;83.90
63445;DHT22;49573;47.682;9.170;2023-11-21T06:37:36;7.70;83.80
63445;DHT22;49573;47.682;9.170;2023-11-21T06:40:22;7.80;84.00
63445;DHT22;49573;47.682;9.170;2023-11-21T06:43:08;7.80;84.00
63445;DHT22;49573;47.682;9.170;2023-11-21T06:45:54;7.80;84.00
63445;DHT22;49573;47.682;9.170;2023-11-21T06:48:41;7.80;84.10
63445;DHT22;49573;47.682;9.170;2023-11-21T06:51:29;7.80;84.20
63445;DHT22;49573;47.682;9.170;2023-11-21T06:54:15;7.80;84.20
63445;DHT22;49573;47.682;9.170;2023-11-21T06:57:01;7.80;84.00
63445;DHT22;49573;47.682;9.170;2023-11-21T06:59:48;7.80;83.80
63445;DHT22;49573;47.682;9.170;2023-11-21T07:02:34;7.80;84.20
63445;DHT22;49573;47.682;9.170;2023-11-21T07:05:21;7.80;84.20
63445;DHT22;49573;47.682;9.170;2023-11-21T07:08:09;7.80;84.40
63445;DHT22;49573;47.682;9.170;2023-11-21T07:10:55;7.80;84.30
63445;DHT22;49573;47.682;9.170;2023-11-21T07:13:41;7.80;84.40
63445;DHT22;49573;47.682;9.170;2023-11-21T07:16:27;7.80;84.70
63445;DHT22;49573;47.682;9.170;2023-11-21T07:19:13;7.80;84.50
63445;DHT22;49573;47.682;9.170;2023-11-21T07:21:59;7.80;84.30
63445;DHT22;49573;47.682;9.170;2023-11-21T07:24:48;7.90;84.50
63445;DHT22;49573;47.682;9.170;2023-11-21T07:27:34;7.80;84.40
63445;DHT22;49573;47.682;9.170;2023-11-21T07:30:21;7.90;84.20
63445;DHT22;49573;47.682;9.170;2023-11-21T07:33:08;7.90;84.40
63445;DHT22;49573;47.682;9.170;2023-11-21T07:35:54;7.90;84.50
63445;DHT22;49573;47.682;9.170;2023-11-21T07:38:41;7.90;84.70
63445;DHT22;49573;47.682;9.170;2023-11-21T07:41:29;7.80;84.20
63445;DHT22;49573;47.682;9.170;2023-11-21T07:44:15;7.80;84.50
63445;DHT22;49573;47.682;9.170;2023-11-21T07:47:02;7.90;84.30
63445;DHT22;49573;47.682;9.170;2023-11-21T07:49:50;7.80;84.50
63445;DHT22;49573;47.682;9.170;2023-11-21T07:52:37;7.90;84.00
63445;DHT22;49573;47.682;9.170;2023-11-21T07:55:23;8.00;84.30
63445;DHT22;49573;47.682;9.170;2023-11-21T07:58:12;8.00;84.20
63445;DHT22;49573;47.682;9.170;2023-11-21T08:00:58;8.00;84.10
63445;DHT22;49573;47.682;9.170;2023-11-21T08:03:44;8.00;84.10
63445;DHT22;49573;47.682;9.170;2023-11-21T08:06:30;8.10;84.40
63445;DHT22;49573;47.682;9.170;2023-11-21T08:09:16;8.10;83.50
63445;DHT22;49573;47.682;9.170;2023-11-21T08:12:04;8.20;83.60
63445;DHT22;49573;47.682;9.170;2023-11-21T08:14:52;8.20;83.70
63445;DHT22;49573;47.682;9.170;2023-11-21T08:17:38;8.20;83.70
63445;DHT22;49573;47.682;9.170;2023-11-21T08:20:24;8.30;83.70
63445;DHT22;49573;47.682;9.170;2023-11-21T08:23:10;8.40;83.90
63445;DHT22;49573;47.682;9.170;2023-11-21T08:25:56;8.40;83.70
63445;DHT22;49573;47.682;9.170;2023-11-21T08:28:42;8.50;83.90
63445;DHT22;49573;47.682;9.170;2023-11-21T08:31:30;8.50;82.50
63445;DHT22;49573;47.682;9.170;2023-11-21T08:34:16;8.40;82.70
63445;DHT22;49573;47.682;9.170;2023-11-21T08:37:03;8.40;82.80
63445;DHT22;49573;47.682;9.170;2023-11-21T08:39:49;8.40;83.10
63445;DHT22;49573;47.682;9.170;2023-11-21T08:42:35;8.40;83.10
63445;DHT22;49573;47.682;9.170;2023-11-21T08:45:21;8.50;82.80
63445;DHT22;49573;47.682;9.170;2023-11-21T08:48:09;8.50;82.60
63445;DHT22;49573;47.682;9.170;2023-11-21T08:50:57;8.50;82.90
63445;DHT22;49573;47.682;9.170;2023-11-21T08:53:43;8.50;82.90
63445;DHT22;49573;47.682;9.170;2023-11-21T08:56:29;8.50;83.10
63445;DHT22;49573;47.682;9.170;2023-11-21T08:59:15;8.60;83.20
63445;DHT22;49573;47.682;9.170;2023-11-21T09:02:02;8.50;83.30
63445;DHT22;49573;47.682;9.170;2023-11-21T09:04:49;8.50;83.50
63445;DHT22;49573;47.682;9.170;2023-11-21T09:07:37;8.50;83.30
63445;DHT22;49573;47.682;9.170;2023-11-21T09:10:23;8.50;83.70
63445;DHT22;49573;47.682;9.170;2023-11-21T09:13:11;8.70;83.70
63445;DHT22;49573;47.682;9.170;2023-11-21T09:15:58;8.70;83.80
63445;DHT22;49573;47.682;9.170;2023-11-21T09:18:45;8.60;83.30
63445;DHT22;49573;47.682;9.170;2023-11-21T09:21:32;8.60;83.70
63445;DHT22;49573;47.682;9.170;2023-11-21T09:24:20;8.70;83.50
63445;DHT22;49573;47.682;9.170;2023-11-21T09:27:06;8.60;83.40
63445;DHT22;49573;47.682;9.170;2023-11-21T09:29:52;8.60;83.50
63445;DHT22;49573;47.682;9.170;2023-11-21T09:32:38;8.70;83.70
63445;DHT22;49573;47.682;9.170;2023-11-21T09:35:25;8.80;83.50
63445;DHT22;49573;47.682;9.170;2023-11-21T09:38:15;8.90;83.40
63445;DHT22;49573;47.682;9.170;2023-11-21T09:41:02;8.90;83.00
63445;DHT22;49573;47.682;9.170;2023-11-21T09:43:54;8.80;83.10
63445;DHT22;49573;47.682;9.170;2023-11-21T09:46:43;9.00;83.20
63445;DHT22;49573;47.682;9.170;2023-11-21T09:49:32;9.00;82.50
63445;DHT22;49573;47.682;9.170;2023-11-21T09:52:24;8.90;83.10
63445;DHT22;49573;47.682;9.170;2023-11-21T09:55:17;8.90;82.40
63445;DHT22;49573;47.682;9.170;2023-11-21T09:58:04;9.00;82.60
63445;DHT22;49573;47.682;9.170;2023-11-21T10:00:55;9.00;82.70
63445;DHT22;49573;47.682;9.170;2023-11-21T10:03:42;9.00;82.80
63445;DHT22;49573;47.682;9.170;2023-11-21T10:06:28;9.00;83.00
63445;DHT22;49573;47.682;9.170;2023-11-21T10:09:17;9.00;82.20
63445;DHT22;49573;47.682;9.170;2023-11-21T10:12:08;9.10;82.60
63445;DHT22;49573;47.682;9.170;2023-11-21T10:14:58;9.10;82.70
63445;DHT22;49573;47.682;9.170;2023-11-21T10:17:46;9.10;82.60
63445;DHT22;49573;47.682;9.170;2023-11-21T10:20:34;9.10;82.00
63445;DHT22;49573;47.682;9.170;2023-11-21T10:23:21;9.10;82.10
63445;DHT22;49573;47.682;9.170;2023-11-21T10:26:09;9.30;81.90
63445;DHT22;49573;47.682;9.170;2023-11-21T10:29:03;9.50;81.70
63445;DHT22;49573;47.682;9.170;2023-11-21T10:31:50;9.70;80.80
63445;DHT22;49573;47.682;9.170;2023-11-21T10:34:37;9.70;80.90
63445;DHT22;49573;47.682;9.170;2023-11-21T10:37:23;9.80;81.00
63445;DHT22;49573;47.682;9.170;2023-11-21T10:40:10;9.90;79.30
63445;DHT22;49573;47.682;9.170;2023-11-21T10:43:06;9.70;79.50
63445;DHT22;49573;47.682;9.170;2023-11-21T10:45:57;10.10;78.30
63445;DHT22;49573;47.682;9.170;2023-11-21T10:48:45;10.60;77.90
63445;DHT22;49573;47.682;9.170;2023-11-21T10:51:32;11.00;76.80
63445;DHT22;49573;47.682;9.170;2023-11-21T10:54:19;11.30;75.60
63445;DHT22;49573;47.682;9.170;2023-11-21T10:57:06;11.10;75.70
63445;DHT22;49573;47.682;9.170;2023-11-21T10:59:54;11.30;75.70
63445;DHT22;49573;47.682;9.170;2023-11-21T11:02:43;11.20;75.30
63445;DHT22;49573;47.682;9.170;2023-11-21T11:05:29;10.90;74.60
63445;DHT22;49573;47.682;9.170;2023-11-21T11:08:19;11.10;76.30
63445;DHT22;49573;47.682;9.170;2023-11-21T11:11:06;11.00;75.70
63445;DHT22;49573;47.682;9.170;2023-11-21T11:13:53;11.10;74.50
63445;DHT22;49573;47.682;9.170;2023-11-21T11:16:40;11.00;74.80
63445;DHT22;49573;47.682;9.170;2023-11-21T11:19:28;10.70;77.30
63445;DHT22;49573;47.682;9.170;2023-11-21T11:22:31;10.60;79.30
63445;DHT22;49573;47.682;9.170;2023-11-21T11:25:38;10.20;79.80
63445;DHT22;49573;47.682;9.170;2023-11-21T11:28:37;10.20;80.40
63445;DHT22;49573;47.682;9.170;2023-11-21T11:31:27;10.20;81.50
63445;DHT22;49573;47.682;9.170;2023-11-21T11:34:30;10.30;79.80
63445;DHT22;49573;47.682;9.170;2023-11-21T11:37:19;10.30;79.40
63445;DHT22;49573;47.682;9.170;2023-11-21T11:40:06;10.00;79.50
63445;DHT22;49573;47.682;9.170;2023-11-21T11:42:58;9.90;80.10
63445;DHT22;49573;47.682;9.170;2023-11-21T11:45:44;9.80;80.90
63445;DHT22;49573;47.682;9.170;2023-11-21T11:48:37;9.60;81.40
63445;DHT22;49573;47.682;9.170;2023-11-21T11:51:26;9.40;81.60
63445;DHT22;49573;47.682;9.170;2023-11-21T11:54:12;9.50;80.60
63445;DHT22;49573;47.682;9.170;2023-11-21T11:56:59;9.40;80.30
63445;DHT22;49573;47.682;9.170;2023-11-21T12:00:07;9.30;80.20
63445;DHT22;49573;47.682;9.170;2023-11-21T12:02:58;9.40;80.40
63445;DHT22;49573;47.682;9.170;2023-11-21T12:05:50;9.40;80.10
63445;DHT22;49573;47.682;9.170;2023-11-21T12:08:41;9.30;80.00
63445;DHT22;49573;47.682;9.170;2023-11-21T12:11:30;9.10;79.70
63445;DHT22;49573;47.682;9.170;2023-11-21T12:14:17;9.20;80.40
63445;DHT22;49573;47.682;9.170;2023-11-21T12:17:03;9.10;80.70
63445;DHT22;49573;47.682;9.170;2023-11-21T12:19:50;9.10;80.30
63445;DHT22;49573;47.682;9.170;2023-11-21T12:22:38;9.10;80.60
63445;DHT22;49573;47.682;9.170;2023-11-21T12:25:27;9.20;80.90
63445;DHT22;49573;47.682;9.170;2023-11-21T12:28:18;9.10;81.30
63445;DHT22;49573;47.682;9.170;2023-11-21T12:31:04;9.10;80.60
63445;DHT22;49573;47.682;9.170;2023-11-21T12:33:52;9.20;79.50
63445;DHT22;49573;47.682;9.170;2023-11-21T12:36:38;9.20;79.20
63445;DHT22;49573;47.682;9.170;2023-11-21T12:39:24;9.20;79.60
63445;DHT22;49573;47.682;9.170;2023-11-21T12:42:12;9.40;79.20
63445;DHT22;49573;47.682;9.170;2023-11-21T12:45:08;9.70;78.50
63445;DHT22;49573;47.682;9.170;2023-11-21T12:48:01;10.00;76.20
63445;DHT22;49573;47.682;9.170;2023-11-21T12:50:52;10.20;78.00
63445;DHT22;49573;47.682;9.170;2023-11-21T12:53:39;10.60;76.30
63445;DHT22;49573;47.682;9.170;2023-11-21T12:56:26;11.10;75.90
63445;DHT22;49573;47.682;9.170;2023-11-21T12:59:14;12.70;73.80
63445;DHT22;49573;47.682;9.170;2023-11-21T13:02:02;12.10;72.10
63445;DHT22;49573;47.682;9.170;2023-11-21T13:04:52;12.00;70.90
63445;DHT22;49573;47.682;9.170;2023-11-21T13:07:41;11.90;70.80
63445;DHT22;49573;47.682;9.170;2023-11-21T13:10:33;12.10;69.40
63445;DHT22;49573;47.682;9.170;2023-11-21T13:13:22;13.20;69.70
63445;DHT22;49573;47.682;9.170;2023-11-21T13:16:11;15.10;64.20
63445;DHT22;49573;47.682;9.170;2023-11-21T13:18:58;16.90;63.40
63445;DHT22;49573;47.682;9.170;2023-11-21T13:21:44;18.10;57.50
63445;DHT22;49573;47.682;9.170;2023-11-21T13:24:30;18.80;54.30
63445;DHT22;49573;47.682;9.170;2023-11-21T13:27:18;18.40;53.10
63445;DHT22;49573;47.682;9.170;2023-11-21T13:30:05;17.70;55.60
63445;DHT22;49573;47.682;9.170;2023-11-21T13:32:55;16.80;56.20
63445;DHT22;49573;47.682;9.170;2023-11-21T13:35:48;15.80;58.10
63445;DHT22;49573;47.682;9.170;2023-11-21T13:38:36;15.00;59.60
63445;DHT22;49573;47.682;9.170;2023-11-21T13:41:23;15.00;60.70
63445;DHT22;49573;47.682;9.170;2023-11-21T13:44:16;16.00;60.40
63445;DHT22;49573;47.682;9.170;2023-11-21T13:47:12;15.70;60.40
63445;DHT22;49573;47.682;9.170;2023-11-21T13:50:00;15.20;60.40
63445;DHT22;49573;47.682;9.170;2023-11-21T13:52:46;14.10;62.50
63445;DHT22;49573;47.682;9.170;2023-11-21T13:55:32;13.70;65.00
63445;DHT22;49573;47.682;9.170;2023-11-21T13:58:18;13.00;66.90
63445;DHT22;49573;47.682;9.170;2023-11-21T14:01:09;13.00;67.70
63445;DHT22;49573;47.682;9.170;2023-11-21T14:04:13;12.30;69.00
63445;DHT22;49573;47.682;9.170;2023-11-21T14:07:00;11.90;71.00
63445;DHT22;49573;47.682;9.170;2023-11-21T14:09:56;12.10;71.30
63445;DHT22;49573;47.682;9.170;2023-11-21T14:12:44;11.90;72.20
63445;DHT22;49573;47.682;9.170;2023-11-21T14:15:31;12.00;72.30
63445;DHT22;49573;47.682;9.170;2023-11-21T14:18:18;11.50;73.80
63445;DHT22;49573;47.682;9.170;2023-11-21T14:21:13;11.50;74.20
63445;DHT22;49573;47.682;9.170;2023-11-21T14:24:01;11.30;74.60
63445;DHT22;49573;47.682;9.170;2023-11-21T14:26:49;11.40;75.30
63445;DHT22;49573;47.682;9.170;2023-11-21T14:29:35;11.40;75.20
63445;DHT22;49573;47.682;9.170;2023-11-21T14:32:26;11.30;75.20
63445;DHT22;49573;47.682;9.170;2023-11-21T14:35:13;11.10;76.00
63445;DHT22;49573;47.682;9.170;2023-11-21T14:38:00;10.80;76.80
63445;DHT22;49573;47.682;9.170;2023-11-21T14:40:48;10.50;77.70
63445;DHT22;49573;47.682;9.170;2023-11-21T14:43:35;10.30;78.10
63445;DHT22;49573;47.682;9.170;2023-11-21T14:46:21;10.20;78.20
63445;DHT22;49573;47.682;9.170;2023-11-21T14:49:07;10.40;78.00
63445;DHT22;49573;47.682;9.170;2023-11-21T14:52:05;10.30;78.10
63445;DHT22;49573;47.682;9.170;2023-11-21T14:55:05;10.30;78.00
63445;DHT22;49573;47.682;9.170;2023-11-21T14:58:13;10.10;78.30
63445;DHT22;49573;47.682;9.170;2023-11-21T15:01:03;10.20;78.70
63445;DHT22;49573;47.682;9.170;2023-11-21T15:03:49;10.10;79.30
63445;DHT22;49573;47.682;9.170;2023-11-21T15:06:36;10.20;80.20
63445;DHT22;49573;47.682;9.170;2023-11-21T15:09:22;10.20;80.20
63445;DHT22;49573;47.682;9.170;2023-11-21T15:12:08;10.30;80.40
63445;DHT22;49573;47.682;9.170;2023-11-21T15:15:02;10.20;80.90
63445;DHT22;49573;47.682;9.170;2023-11-21T15:17:50;10.20;81.10
63445;DHT22;49573;47.682;9.170;2023-11-21T15:20:36;10.20;81.30
63445;DHT22;49573;47.682;9.170;2023-11-21T15:23:22;10.20;81.40
63445;DHT22;49573;47.682;9.170;2023-11-21T15:26:08;10.20;81.50
63445;DHT22;49573;47.682;9.170;2023-11-21T15:28:55;10.20;81.50
63445;DHT22;49573;47.682;9.170;2023-11-21T15:31:43;10.20;81.70
63445;DHT22;49573;47.682;9.170;2023-11-21T15:34:34;10.10;81.90
63445;DHT22;49573;47.682;9.170;2023-11-21T15:37:20;10.10;82.10
63445;DHT22;49573;47.682;9.170;2023-11-21T15:40:08;10.00;82.30
63445;DHT22;49573;47.682;9.170;2023-11-21T15:42:54;9.90;82.60
63445;DHT22;49573;47.682;9.170;2023-11-21T15:45:41;9.90;82.50
63445;DHT22;49573;47.682;9.170;2023-11-21T15:48:28;9.80;83.00
63445;DHT22;49573;47.682;9.170;2023-11-21T15:51:16;9.90;82.60
63445;DHT22;49573;47.682;9.170;2023-11-21T15:54:02;9.90;82.50
63445;DHT22;49573;47.682;9.170;2023-11-21T15:56:49;9.90;82.80
63445;DHT22;49573;47.682;9.170;2023-11-21T15:59:35;9.80;83.10
63445;DHT22;49573;47.682;9.170;2023-11-21T16:02:21;9.80;83.20
63445;DHT22;49573;47.682;9.170;2023-11-21T16:05:09;9.70;83.50
63445;DHT22;49573;47.682;9.170;2023-11-21T16:07:55;9.70;83.30
63445;DHT22;49573;47.682;9.170;2023-11-21T16:10:41;9.80;83.50
63445;DHT22;49573;47.682;9.170;2023-11-21T16:13:27;9.70;83.50
63445;DHT22;49573;47.682;9.170;2023-11-21T16:16:13;9.70;83.70
63445;DHT22;49573;47.682;9.170;2023-11-21T16:19:02;9.70;83.70
63445;DHT22;49573;47.682;9.170;2023-11-21T16:21:49;9.70;83.80
63445;DHT22;49573;47.682;9.170;2023-11-21T16:24:35;9.50;84.50
63445;DHT22;49573;47.682;9.170;2023-11-21T16:27:22;9.50;84.40
63445;DHT22;49573;47.682;9.170;2023-11-21T16:30:10;9.50;84.60
63445;DHT22;49573;47.682;9.170;2023-11-21T16:32:56;9.40;84.30
63445;DHT22;49573;47.682;9.170;2023-11-21T16:35:42;9.50;84.10
63445;DHT22;49573;47.682;9.170;2023-11-21T16:38:29;9.40;83.80
63445;DHT22;49573;47.682;9.170;2023-11-21T16:41:15;9.40;83.70
63445;DHT22;49573;47.682;9.170;2023-11-21T16:44:03;9.40;83.50
63445;DHT22;49573;47.682;9.170;2023-11-21T16:46:50;9.40;83.60
63445;DHT22;49573;47.682;9.170;2023-11-21T16:49:44;9.30;83.60
63445;DHT22;49573;47.682;9.170;2023-11-21T16:52:30;9.20;83.30
63445;DHT22;49573;47.682;9.170;2023-11-21T16:55:18;9.10;83.30
63445;DHT22;49573;47.682;9.170;2023-11-21T16:58:04;9.10;83.30
63445;DHT22;49573;47.682;9.170;2023-11-21T17:00:50;9.10;83.10
63445;DHT22;49573;47.682;9.170;2023-11-21T17:03:36;9.00;83.30
63445;DHT22;49573;47.682;9.170;2023-11-21T17:06:22;8.90;83.50
63445;DHT22;49573;47.682;9.170;2023-11-21T17:09:09;8.90;83.90
63445;DHT22;49573;47.682;9.170;2023-11-21T17:11:57;8.90;84.00
63445;DHT22;49573;47.682;9.170;2023-11-21T17:14:44;8.90;84.00
63445;DHT22;49573;47.682;9.170;2023-11-21T17:17:32;8.90;84.30
63445;DHT22;49573;47.682;9.170;2023-11-21T17:20:19;8.80;84.40
63445;DHT22;49573;47.682;9.170;2023-11-21T17:23:05;8.80;84.40
63445;DHT22;49573;47.682;9.170;2023-11-21T17:25:54;8.80;84.60
63445;DHT22;49573;47.682;9.170;2023-11-21T17:28:41;8.80;84.80
63445;DHT22;49573;47.682;9.170;2023-11-21T17:31:28;8.80;84.90
63445;DHT22;49573;47.682;9.170;2023-11-21T17:34:15;8.70;84.80
63445;DHT22;49573;47.682;9.170;2023-11-21T17:37:04;8.60;85.20
63445;DHT22;49573;47.682;9.170;2023-11-21T17:39:50;8.50;84.70
63445;DHT22;49573;47.682;9.170;2023-11-21T17:42:37;8.50;84.60
63445;DHT22;49573;47.682;9.170;2023-11-21T17:45:26;8.50;84.70
63445;DHT22;49573;47.682;9.170;2023-11-21T17:48:12;8.40;84.80
63445;DHT22;49573;47.682;9.170;2023-11-21T17:50:58;8.30;84.90